createdAt,value
2019-06-10T00:03:11.237Z,6
2019-06-10T00:18:24.996Z,4.4
2019-06-10T00:18:26.275Z,4.4
2019-06-10T00:18:34.059Z,4.4
2019-06-10T00:33:36.414Z,3.9
2019-06-10T00:48:24.294Z,4.3
2019-06-10T00:48:26.217Z,4.3
2019-06-10T00:48:28.857Z,4.3
2019-06-10T01:03:14.655Z,3.9
2019-06-10T01:17:58.271Z,2.8
2019-06-10T01:33:44.236Z,4.1
2019-06-10T01:48:22.845Z,4
2019-06-10T02:03:03.493Z,4.2
2019-06-10T02:18:34.225Z,5.2
2019-06-10T02:33:36.937Z,5.4
2019-06-10T02:48:35.563Z,4.1
2019-06-10T03:03:35.862Z,7.1
2019-06-10T03:03:39.439Z,7.1
2019-06-10T03:03:42.884Z,7.1
2019-06-10T03:18:25.996Z,5.7
2019-06-10T03:33:53.925Z,3.6
2019-06-10T03:48:27.148Z,4.7
2019-06-10T04:03:28.121Z,4.8
2019-06-10T04:18:32.807Z,3.9
2019-06-10T04:33:33.179Z,5
2019-06-10T04:48:25.033Z,4.2
2019-06-10T05:03:52.701Z,3.5
2019-06-10T05:18:27.603Z,4.8
2019-06-10T05:33:16.356Z,4.5
2019-06-10T05:48:55.137Z,3.7
2019-06-10T06:03:43.904Z,6.1
2019-06-10T06:17:23.750Z,6.1
2019-06-10T06:18:18.176Z,6.4
2019-06-10T06:33:35.928Z,7.3
2019-06-10T06:33:39.720Z,7.3
2019-06-10T06:45:02.980Z,7.3
2019-06-10T06:48:04.480Z,6.1
2019-06-10T07:03:14.105Z,4.7
2019-06-10T07:18:26.518Z,5.8
2019-06-10T07:33:39.180Z,6.8
2019-06-10T07:48:47.883Z,5.3
2019-06-10T07:48:48.732Z,5.3
2019-06-10T08:03:48.345Z,6.4
2019-06-10T08:19:11.217Z,7.5
2019-06-10T08:19:20.121Z,7.5
2019-06-10T08:19:24.635Z,7.5
2019-06-10T08:33:49.115Z,5
2019-06-10T08:48:47.687Z,6.1
2019-06-10T09:03:49.387Z,6.4
2019-06-10T09:18:55.506Z,5.5
2019-06-10T09:34:03.979Z,5
2019-06-10T09:49:02.689Z,5.4
2019-06-10T10:03:23.220Z,4.9
2019-06-10T10:19:00.544Z,6.4
2019-06-10T10:19:05.295Z,6.4
2019-06-10T10:34:05.584Z,5.4
2019-06-10T10:49:04.333Z,6.4
2019-06-10T11:04:09.751Z,7.6
2019-06-10T11:18:56.257Z,5.5
2019-06-10T11:34:03.144Z,8.9
2019-06-10T11:48:25.487Z,6.1
2019-06-10T12:03:37.009Z,5.6
2019-06-10T12:18:29.448Z,5.5
2019-06-10T12:33:36.999Z,5.4
2019-06-10T12:48:54.885Z,9.3
2019-06-10T12:48:59.705Z,9.3
2019-06-10T12:49:03.941Z,9.3
2019-06-10T13:04:09.401Z,5.4
2019-06-10T13:19:15.750Z,5
2019-06-10T13:33:43.273Z,5.2
2019-06-10T13:49:10.730Z,6.4
2019-06-10T14:03:34.595Z,4.6
2019-06-10T14:19:07.235Z,7
2019-06-10T14:34:24.027Z,5.1
2019-06-10T14:48:53.275Z,6
2019-06-10T15:04:16.067Z,4.9
2019-06-10T15:18:43.238Z,4.3
2019-06-10T15:33:59.371Z,7.2
2019-06-10T15:49:24.421Z,6.9
2019-06-10T15:49:26.189Z,6.9
2019-06-10T16:03:42.564Z,5.3
2019-06-10T16:19:04.635Z,5.9
2019-06-10T16:34:19.575Z,4.5
2019-06-10T16:49:29.744Z,4.6
2019-06-10T17:03:52.446Z,4.2
2019-06-10T17:19:07.382Z,5
2019-06-10T17:37:12.379Z,10.5
2019-06-10T17:49:07.326Z,5.7
2019-06-10T18:04:12.991Z,5.8
2019-06-10T18:19:37.509Z,6.5
2019-06-10T18:34:22.668Z,8.5
2019-06-10T18:49:02.817Z,5.1
2019-06-10T19:03:55.492Z,6.1
2019-06-10T19:18:57.585Z,5.4
2019-06-10T19:34:44.851Z,6.5
2019-06-10T19:34:48.501Z,6.5
2019-06-10T19:49:24.273Z,5.6
2019-06-10T20:04:03.013Z,8.5
2019-06-10T20:19:44.238Z,10.8
2019-06-10T20:34:33.038Z,13.3
2019-06-10T20:48:59.303Z,9.6
2019-06-10T21:04:34.562Z,8.3
2019-06-10T21:19:24.629Z,10.7
2019-06-10T21:34:28.151Z,11.7
2019-06-10T21:49:14.552Z,13.7
2019-06-10T22:04:53.773Z,10.9
2019-06-10T22:34:18.172Z,11
2019-06-10T22:48:59.574Z,11.3
2019-06-10T23:04:27.106Z,12.3
2019-06-10T23:19:33.037Z,13.1
2019-06-10T23:34:33.167Z,11.6
2019-06-10T23:49:41.944Z,12.1
